Rechercher aéroport 
image banner adimage banner ad
image banner ad

DAUT - Timimoun

Situé à Timimoun, Algeria

ICAO - DAUT, IATA - TMX

Données fournies par Airmate  

Information générale

Coordonnées: N29°14'28" E0°17'1"
Élévation : 1026 feet MSL.
 
Voir autres Aéroports à Adrar Province

Données opérationnelles

Accessible au public
Heure actuelle UTC:
Heure actuelle locale:
Météo
METAR: DAUT 291100Z 07019KT CAVOK 23/M00 Q1024
TAF: TAF DAUT 290800Z 2909/2918 06012KT CAVOK PROB40 2910/2916 06022KT 4000 DRSA
Voir NOTAMs / SUP AIP / TFR affectant cet aéroport [VIEW]
Fréquences de communication: [VIEW]

Pistes:

Identifiant RWYQFULongueur (ft)Largeur (ft)SurfaceLDA (ft)
0656°9843148ASP
24236°9843148

Coordonnées de l'aéroport

Adresse: Timimoun Algeria

Vue satellite de DAUT